Portada
METAR-TAF:

METAR-TAF

Aeropuertos :

Aeropuerto Regional de Montgomery

Montgomery, Alabama, Estados Unidos

latitud: 32-18-01N, longitud: 086-24-22W, altitud: 67 m

Observación

El informe se hizo hace 14 minutos, a las 12:26 UTC
Viento 5 kt del norte-noreste
Temperatura 23°C
Humedad 89%
Presión 1016 hPa
Visibilidad: 16.1 km
Escasas nubes a una altura de 500 ft

METAR: KMGM 041226Z 03005KT 10SM FEW005 23/21 A2999 RMK AO2 T02330211

Hora: 07:40 (12:40 UTC)

Pronóstico

El informe se hizo hace 1 hora y 20 minutos, a las 11:20 UTC
Pronóstico válido del 04 a las 12 UTC al 05 a las 12 UTC
Viento 3 kt del norte-noreste
Visibilidad: 10 km
Cielo despejado
A partir de las 04 a las 1700 UTC
Viento 5 kt del norte
Visibilidad: 10 km
Nubes dispersas a una altura de 6000 ft
A partir de las 05 a las 0100 UTC
Viento kt del norte
Visibilidad: 10 km
Cielo despejado

TAF: KMGM 041120Z 0412/0512 02003KT P6SM SKC FM041700 35005KT P6SM SCT060 FM050100 00000KT P6SM SKC

Observaciones y pronósticos meteorológicos de más de 4000 aeropuertos (mensajes METAR y TAF).

Los puntos amarillos y rojos representan las estaciones disponibles.

Ponga el ratón en el punto deseado para ver el nombre de la estación.

Haga clic para ver las observaciones y los pronósticos meteorológicos.

Para cambiar el mapa : haga clic en los botones verdes con una cruz de color negro para hacer un zoom, en el botón verde con un guión para alejar o en las flechas verdes para mapas adyacentes.


METAR-TAF: